Time,TemperatureF,DewpointF,PressureIn,WindDirection,WindDirectionDegrees,WindSpeedMPH,WindSpeedGustMPH,Humidity,HourlyPrecipIn,Conditions,Clouds,dailyrainin,SolarRadiationWatts/m^2,SoftwareType,DateUTC
2013-04-18 00:13:00,63.0,60.0,-100.00,SE,130,5.0,9.0,90,0.00,,,0.22,0.000000,,2013-04-18 04:13:00,
2013-04-18 00:23:00,63.0,60.0,-100.00,SE,130,5.0,9.0,90,0.00,,,0.22,0.000000,,2013-04-18 04:23:00,
2013-04-18 00:33:00,63.0,60.0,-100.00,SE,130,5.0,9.0,90,0.00,,,0.22,0.000000,,2013-04-18 04:33:00,
2013-04-18 00:43:00,63.0,60.0,-100.00,SE,130,5.0,9.0,90,0.00,,,0.22,0.000000,,2013-04-18 04:43:00,
2013-04-18 01:12:00,65.0,61.0,-100.00,SE,145,8.0,11.0,86,0.00,,,0.16,0.000000,,2013-04-18 05:12:00,
2013-04-18 01:22:00,65.0,61.0,-100.00,SE,145,8.0,11.0,86,0.00,,,0.16,0.000000,,2013-04-18 05:22:00,
2013-04-18 01:33:00,65.0,61.0,-100.00,SE,145,8.0,11.0,86,0.00,,,0.16,0.000000,,2013-04-18 05:33:00,
2013-04-18 01:42:00,65.0,61.0,-100.00,SE,145,8.0,11.0,86,0.00,,,0.16,0.000000,,2013-04-18 05:42:00,
2013-04-18 02:12:00,64.0,60.0,-100.00,SSE,157,6.0,12.0,86,0.00,,,0.15,0.000000,,2013-04-18 06:12:00,
2013-04-18 02:22:00,64.0,60.0,-100.00,SSE,157,6.0,12.0,86,0.00,,,0.15,0.000000,,2013-04-18 06:22:00,
2013-04-18 02:32:00,64.0,60.0,-100.00,SSE,157,6.0,12.0,86,0.00,,,0.15,0.000000,,2013-04-18 06:32:00,
2013-04-18 02:42:00,64.0,60.0,-100.00,SSE,157,6.0,12.0,86,0.00,,,0.15,0.000000,,2013-04-18 06:42:00,
2013-04-18 03:12:00,64.0,59.0,-100.00,SSE,163,6.0,11.0,84,0.00,,,0.15,0.000000,,2013-04-18 07:12:00,
2013-04-18 03:22:00,64.0,59.0,-100.00,SSE,163,6.0,11.0,84,0.00,,,0.15,0.000000,,2013-04-18 07:22:00,
2013-04-18 03:32:00,64.0,59.0,-100.00,SSE,163,6.0,11.0,84,0.00,,,0.15,0.000000,,2013-04-18 07:32:00,
2013-04-18 03:42:00,64.0,59.0,-100.00,SSE,163,6.0,11.0,84,0.00,,,0.15,0.000000,,2013-04-18 07:42:00,
2013-04-18 04:12:00,63.0,58.0,-100.00,SSE,163,6.0,10.0,84,0.00,,,0.15,0.000000,,2013-04-18 08:12:00,
2013-04-18 04:22:00,63.0,58.0,-100.00,SSE,163,6.0,10.0,84,0.00,,,0.15,0.000000,,2013-04-18 08:22:00,
2013-04-18 04:32:00,63.0,58.0,-100.00,SSE,163,6.0,10.0,84,0.00,,,0.15,0.000000,,2013-04-18 08:32:00,
2013-04-18 04:42:00,63.0,58.0,-100.00,SSE,163,6.0,10.0,84,0.00,,,0.15,0.000000,,2013-04-18 08:42:00,
2013-04-18 05:12:00,62.0,57.0,-100.00,SSE,168,6.0,10.0,83,0.00,,,0.14,0.000000,,2013-04-18 09:12:00,
2013-04-18 05:22:00,62.0,57.0,-100.00,SSE,168,6.0,10.0,83,0.00,,,0.14,0.000000,,2013-04-18 09:22:00,
2013-04-18 05:33:00,62.0,57.0,-100.00,SSE,168,6.0,10.0,83,0.00,,,0.14,0.000000,,2013-04-18 09:33:00,
2013-04-18 05:43:00,62.0,57.0,-100.00,SSE,168,6.0,10.0,83,0.00,,,0.14,0.000000,,2013-04-18 09:43:00,
2013-04-18 06:12:00,63.0,58.0,-100.00,SSE,167,6.0,11.0,83,0.00,,,0.07,0.000000,,2013-04-18 10:12:00,
2013-04-18 06:23:00,63.0,58.0,-100.00,SSE,167,6.0,11.0,83,0.00,,,0.07,0.000000,,2013-04-18 10:23:00,
2013-04-18 06:33:00,63.0,58.0,-100.00,SSE,167,6.0,11.0,83,0.00,,,0.07,0.000000,,2013-04-18 10:33:00,
2013-04-18 06:42:00,63.0,58.0,-100.00,SSE,167,6.0,11.0,83,0.00,,,0.07,0.000000,,2013-04-18 10:42:00,
2013-04-18 07:12:00,63.0,58.0,-100.00,South,172,6.0,10.0,83,0.00,,,0.01,0.000000,,2013-04-18 11:12:00,
2013-04-18 07:22:00,63.0,58.0,-100.00,South,172,6.0,10.0,83,0.00,,,0.01,0.000000,,2013-04-18 11:22:00,
2013-04-18 07:32:00,63.0,58.0,-100.00,South,172,6.0,10.0,83,0.00,,,0.01,0.000000,,2013-04-18 11:32:00,
2013-04-18 07:42:00,63.0,58.0,-100.00,South,172,6.0,10.0,83,0.00,,,0.01,0.000000,,2013-04-18 11:42:00,
2013-04-18 08:12:00,65.0,59.0,-100.00,SSE,165,7.0,12.0,82,0.00,,,0.01,36.000000,,2013-04-18 12:12:00,
2013-04-18 08:23:00,65.0,59.0,-100.00,SSE,165,7.0,12.0,82,0.00,,,0.01,36.000000,,2013-04-18 12:23:00,
2013-04-18 08:32:00,65.0,59.0,-100.00,SSE,165,7.0,12.0,82,0.00,,,0.01,36.000000,,2013-04-18 12:32:00,
2013-04-18 08:42:00,65.0,59.0,-100.00,SSE,165,7.0,12.0,82,0.00,,,0.01,36.000000,,2013-04-18 12:42:00,
2013-04-18 09:12:00,68.0,60.0,-100.00,SSE,162,8.0,16.0,76,0.00,,,0.01,182.000000,,2013-04-18 13:12:00,
2013-04-18 09:22:00,68.0,60.0,-100.00,SSE,162,8.0,16.0,76,0.00,,,0.01,182.000000,,2013-04-18 13:22:00,
2013-04-18 09:33:00,68.0,60.0,-100.00,SSE,162,8.0,16.0,76,0.00,,,0.01,182.000000,,2013-04-18 13:33:00,
2013-04-18 09:42:00,68.0,60.0,-100.00,SSE,162,8.0,16.0,76,0.00,,,0.01,182.000000,,2013-04-18 13:42:00,
2013-04-18 10:12:00,71.0,61.0,-100.00,SSE,168,13.0,27.0,71,0.00,,,0.01,362.000000,,2013-04-18 14:12:00,
2013-04-18 10:22:00,71.0,61.0,-100.00,SSE,168,13.0,27.0,71,0.00,,,0.01,362.000000,,2013-04-18 14:22:00,
2013-04-18 10:33:00,71.0,61.0,-100.00,SSE,168,13.0,27.0,71,0.00,,,0.01,362.000000,,2013-04-18 14:33:00,
2013-04-18 10:43:00,71.0,61.0,-100.00,SSE,168,13.0,27.0,71,0.00,,,0.01,362.000000,,2013-04-18 14:43:00,
2013-04-18 11:12:00,75.0,62.0,-100.00,SSE,165,15.0,31.0,64,0.00,,,0.00,620.000000,,2013-04-18 15:12:00,
2013-04-18 11:22:00,75.0,62.0,-100.00,SSE,165,15.0,31.0,64,0.00,,,0.00,620.000000,,2013-04-18 15:22:00,
2013-04-18 11:33:00,75.0,62.0,-100.00,SSE,165,15.0,31.0,64,0.00,,,0.00,620.000000,,2013-04-18 15:33:00,
2013-04-18 11:43:00,75.0,62.0,-100.00,SSE,165,15.0,31.0,64,0.00,,,0.00,620.000000,,2013-04-18 15:43:00,
2013-04-18 13:13:00,79.0,58.0,-100.00,SSE,164,18.0,33.0,49,-99.99,,,0.00,564.000000,,2013-04-18 17:13:00,
2013-04-18 13:22:00,79.0,58.0,-100.00,SSE,164,18.0,33.0,49,-99.99,,,0.00,564.000000,,2013-04-18 17:22:00,
2013-04-18 13:33:00,79.0,58.0,-100.00,SSE,164,18.0,33.0,49,-99.99,,,0.00,564.000000,,2013-04-18 17:33:00,
2013-04-18 13:43:00,79.0,58.0,-100.00,SSE,164,18.0,33.0,49,-99.99,,,0.00,564.000000,,2013-04-18 17:43:00,
2013-04-18 14:13:00,81.0,58.0,-100.00,SSE,166,14.0,30.0,45,0.00,,,0.00,891.000000,,2013-04-18 18:13:00,
2013-04-18 14:23:00,81.0,58.0,-100.00,SSE,166,14.0,30.0,45,0.00,,,0.00,891.000000,,2013-04-18 18:23:00,
2013-04-18 14:32:00,81.0,58.0,-100.00,SSE,166,14.0,30.0,45,0.00,,,0.00,891.000000,,2013-04-18 18:32:00,
2013-04-18 14:43:00,81.0,58.0,-100.00,SSE,166,14.0,30.0,45,0.00,,,0.00,891.000000,,2013-04-18 18:43:00,
2013-04-18 15:13:00,82.0,57.0,-100.00,SSE,163,13.0,30.0,43,0.00,,,0.00,805.000000,,2013-04-18 19:13:00,
2013-04-18 15:22:00,82.0,57.0,-100.00,SSE,163,13.0,30.0,43,0.00,,,0.00,805.000000,,2013-04-18 19:22:00,
2013-04-18 15:32:00,82.0,57.0,-100.00,SSE,163,13.0,30.0,43,0.00,,,0.00,805.000000,,2013-04-18 19:32:00,
2013-04-18 15:42:00,82.0,57.0,-100.00,SSE,163,13.0,30.0,43,0.00,,,0.00,805.000000,,2013-04-18 19:42:00,
2013-04-18 16:12:00,82.0,55.0,-100.00,SSE,154,13.0,28.0,39,0.00,,,0.00,634.000000,,2013-04-18 20:12:00,
2013-04-18 16:22:00,82.0,55.0,-100.00,SSE,154,13.0,28.0,39,0.00,,,0.00,634.000000,,2013-04-18 20:22:00,
2013-04-18 16:32:00,82.0,55.0,-100.00,SSE,154,13.0,28.0,39,0.00,,,0.00,634.000000,,2013-04-18 20:32:00,
2013-04-18 16:42:00,82.0,55.0,-100.00,SSE,154,13.0,28.0,39,0.00,,,0.00,634.000000,,2013-04-18 20:42:00,
2013-04-18 17:12:00,81.0,55.0,-100.00,SSE,150,11.0,27.0,41,0.00,,,0.00,428.000000,,2013-04-18 21:12:00,
2013-04-18 17:22:00,81.0,55.0,-100.00,SSE,150,11.0,27.0,41,0.00,,,0.00,428.000000,,2013-04-18 21:22:00,
2013-04-18 17:33:00,81.0,55.0,-100.00,SSE,150,11.0,27.0,41,0.00,,,0.00,428.000000,,2013-04-18 21:33:00,
2013-04-18 17:43:00,81.0,55.0,-100.00,SSE,150,11.0,27.0,41,0.00,,,0.00,428.000000,,2013-04-18 21:43:00,
2013-04-18 18:13:00,79.0,55.0,-100.00,SE,146,13.0,24.0,43,0.00,,,0.00,159.000000,,2013-04-18 22:13:00,
2013-04-18 18:23:00,79.0,55.0,-100.00,SE,146,13.0,24.0,43,0.00,,,0.00,159.000000,,2013-04-18 22:23:00,
2013-04-18 18:33:00,79.0,55.0,-100.00,SE,146,13.0,24.0,43,0.00,,,0.00,159.000000,,2013-04-18 22:33:00,
2013-04-18 18:42:00,79.0,55.0,-100.00,SE,146,13.0,24.0,43,0.00,,,0.00,159.000000,,2013-04-18 22:42:00,
2013-04-18 19:12:00,78.0,52.0,-100.00,SSE,151,10.0,21.0,40,0.00,,,0.00,135.000000,,2013-04-18 23:12:00,
2013-04-18 19:22:00,78.0,52.0,-100.00,SSE,151,10.0,21.0,40,0.00,,,0.00,135.000000,,2013-04-18 23:22:00,
2013-04-18 19:32:00,78.0,52.0,-100.00,SSE,151,10.0,21.0,40,0.00,,,0.00,135.000000,,2013-04-18 23:32:00,
2013-04-18 19:42:00,78.0,52.0,-100.00,SSE,151,10.0,21.0,40,0.00,,,0.00,135.000000,,2013-04-18 23:42:00,
2013-04-18 20:12:00,77.0,51.0,-100.00,SSE,153,9.0,18.0,41,0.00,,,0.00,44.000000,,2013-04-19 00:12:00,
2013-04-18 20:22:00,77.0,51.0,-100.00,SSE,153,9.0,18.0,41,0.00,,,0.00,44.000000,,2013-04-19 00:22:00,
2013-04-18 20:32:00,77.0,51.0,-100.00,SSE,153,9.0,18.0,41,0.00,,,0.00,44.000000,,2013-04-19 00:32:00,
2013-04-18 20:42:00,77.0,51.0,-100.00,SSE,153,9.0,18.0,41,0.00,,,0.00,44.000000,,2013-04-19 00:42:00,
2013-04-18 21:11:00,76.0,50.0,-100.00,SSE,156,11.0,23.0,40,0.00,,,0.00,4.000000,,2013-04-19 01:11:00,
2013-04-18 21:21:00,76.0,50.0,-100.00,SSE,156,11.0,23.0,40,0.00,,,0.00,4.000000,,2013-04-19 01:21:00,
2013-04-18 21:32:00,76.0,50.0,-100.00,SSE,156,11.0,23.0,40,0.00,,,0.00,4.000000,,2013-04-19 01:32:00,
2013-04-18 21:42:00,76.0,50.0,-100.00,SSE,156,11.0,23.0,40,0.00,,,0.00,4.000000,,2013-04-19 01:42:00,
2013-04-18 22:11:00,75.0,51.0,-100.00,SE,145,12.0,24.0,43,0.00,,,0.00,0.000000,,2013-04-19 02:11:00,
2013-04-18 22:21:00,75.0,51.0,-100.00,SE,145,12.0,24.0,43,0.00,,,0.00,0.000000,,2013-04-19 02:21:00,
2013-04-18 22:32:00,75.0,51.0,-100.00,SE,145,12.0,24.0,43,0.00,,,0.00,0.000000,,2013-04-19 02:32:00,
2013-04-18 22:42:00,75.0,51.0,-100.00,SE,145,12.0,24.0,43,0.00,,,0.00,0.000000,,2013-04-19 02:42:00,
2013-04-18 23:12:00,74.0,52.0,-100.00,SE,143,11.0,25.0,46,0.00,,,0.00,0.000000,,2013-04-19 03:12:00,
2013-04-18 23:22:00,74.0,52.0,-100.00,SE,143,11.0,25.0,46,0.00,,,0.00,0.000000,,2013-04-19 03:22:00,
2013-04-18 23:33:00,74.0,52.0,-100.00,SE,143,11.0,25.0,46,0.00,,,0.00,0.000000,,2013-04-19 03:33:00,
2013-04-18 23:43:00,74.0,52.0,-100.00,SE,143,11.0,25.0,46,0.00,,,0.00,0.000000,,2013-04-19 03:43:00,